createdAt,value
2018-03-25T00:01:34.711Z,-0.06
2018-03-25T00:04:02.334Z,-0.12
2018-03-25T00:06:29.908Z,-0.18
2018-03-25T00:08:57.484Z,-0.23
2018-03-25T00:11:25.115Z,-0.25
2018-03-25T00:13:52.677Z,-0.31
2018-03-25T00:16:20.250Z,-0.34
2018-03-25T00:18:47.880Z,-0.38
2018-03-25T00:21:15.502Z,-0.39
2018-03-25T00:23:43.061Z,-0.39
2018-03-25T00:26:10.622Z,-0.35
2018-03-25T00:28:38.199Z,-0.30
2018-03-25T00:31:05.780Z,-0.23
2018-03-25T00:33:33.420Z,-0.13
2018-03-25T00:36:00.983Z,-0.04
2018-03-25T00:38:28.666Z,0.11
2018-03-25T00:40:56.282Z,0.23
2018-03-25T00:43:23.850Z,0.30
2018-03-25T00:45:51.487Z,0.36
2018-03-25T00:48:19.050Z,0.44
2018-03-25T00:50:46.628Z,0.52
2018-03-25T00:53:14.246Z,0.58
2018-03-25T00:55:41.926Z,0.54
2018-03-25T00:58:09.486Z,0.54
2018-03-25T01:00:37.108Z,0.60
2018-03-25T01:03:04.735Z,0.64
2018-03-25T01:05:32.293Z,0.65
2018-03-25T01:07:59.863Z,0.73
2018-03-25T01:10:27.483Z,0.80
2018-03-25T01:12:55.171Z,0.87
2018-03-25T01:15:22.801Z,0.93
2018-03-25T01:17:50.424Z,0.97
2018-03-25T01:20:17.995Z,1.02
2018-03-25T01:22:45.557Z,1.07
2018-03-25T01:25:13.187Z,1.10
2018-03-25T01:27:40.761Z,1.13
2018-03-25T01:30:08.437Z,1.18
2018-03-25T01:32:36.108Z,1.20
2018-03-25T01:35:03.657Z,1.23
2018-03-25T01:37:31.227Z,1.20
2018-03-25T01:39:58.786Z,1.21
2018-03-25T01:42:26.354Z,1.20
2018-03-25T01:44:53.914Z,1.19
2018-03-25T01:47:21.586Z,1.20
2018-03-25T01:49:49.210Z,1.22
2018-03-25T01:52:16.772Z,1.22
2018-03-25T01:54:44.403Z,1.27
2018-03-25T01:57:12.304Z,1.28
2018-03-25T01:59:39.872Z,1.26
2018-03-25T02:02:07.448Z,1.28
2018-03-25T02:04:35.075Z,1.31
2018-03-25T02:07:02.637Z,1.34
2018-03-25T02:09:30.194Z,1.35
2018-03-25T02:11:57.765Z,1.36
2018-03-25T02:14:25.330Z,1.37
2018-03-25T02:16:52.916Z,1.39
2018-03-25T02:19:20.510Z,1.39
2018-03-25T02:21:48.118Z,1.40
2018-03-25T02:24:15.674Z,1.39
2018-03-25T02:26:43.295Z,1.40
2018-03-25T02:29:10.866Z,1.40
2018-03-25T02:31:38.427Z,1.39
2018-03-25T02:34:06.064Z,1.38
2018-03-25T02:36:33.622Z,1.37
2018-03-25T02:39:01.312Z,1.37
2018-03-25T02:41:28.866Z,1.36
2018-03-25T02:43:56.427Z,1.30
2018-03-25T02:46:24.013Z,1.21
2018-03-25T02:48:51.573Z,1.23
2018-03-25T02:51:19.203Z,1.24
2018-03-25T02:53:46.826Z,1.24
2018-03-25T02:56:14.496Z,1.28
2018-03-25T02:58:42.125Z,1.27
2018-03-25T03:01:09.747Z,1.25
2018-03-25T03:03:37.445Z,1.23
2018-03-25T03:06:05.065Z,1.22
2018-03-25T03:08:32.707Z,1.20
2018-03-25T03:11:00.275Z,1.15
2018-03-25T03:13:27.895Z,1.04
2018-03-25T03:15:55.458Z,1.03
2018-03-25T03:18:23.013Z,1.09
2018-03-25T03:20:50.574Z,1.12
2018-03-25T03:23:18.135Z,1.12
2018-03-25T03:25:45.723Z,1.17
2018-03-25T03:28:13.346Z,1.17
2018-03-25T03:30:40.963Z,1.16
2018-03-25T03:33:08.526Z,1.17
2018-03-25T03:35:36.147Z,1.19
2018-03-25T03:38:03.789Z,1.16
2018-03-25T03:40:31.349Z,1.12
2018-03-25T03:42:58.914Z,1.07
2018-03-25T03:45:26.475Z,1.07
2018-03-25T03:47:54.085Z,1.07
2018-03-25T03:50:21.646Z,1.09
2018-03-25T03:52:49.211Z,1.08
2018-03-25T03:55:16.842Z,1.06
2018-03-25T03:57:44.406Z,1.04
2018-03-25T04:00:11.978Z,1.11
2018-03-25T04:02:39.538Z,1.16
2018-03-25T04:05:07.154Z,1.20
2018-03-25T04:07:34.715Z,1.21
2018-03-25T04:10:02.278Z,1.17
2018-03-25T04:12:29.921Z,1.21
2018-03-25T04:14:57.550Z,1.22
2018-03-25T04:17:25.122Z,1.24
2018-03-25T04:19:52.719Z,1.30
2018-03-25T04:22:20.392Z,1.37
2018-03-25T04:24:47.965Z,1.39
2018-03-25T04:27:15.522Z,1.43
2018-03-25T04:29:43.104Z,1.46
2018-03-25T04:32:10.675Z,1.51
2018-03-25T04:34:38.303Z,1.56
2018-03-25T04:37:05.936Z,1.59
2018-03-25T04:39:33.562Z,1.59
2018-03-25T04:42:01.123Z,1.68
2018-03-25T04:44:28.742Z,1.65
2018-03-25T04:46:56.324Z,1.64
2018-03-25T04:49:23.947Z,1.53
2018-03-25T04:51:51.628Z,1.62
2018-03-25T04:54:19.191Z,1.62
2018-03-25T04:56:46.757Z,1.65
2018-03-25T04:59:14.322Z,1.68
2018-03-25T05:01:41.877Z,1.76
2018-03-25T05:04:09.497Z,1.89
2018-03-25T05:06:37.099Z,2.00
2018-03-25T05:09:04.743Z,2.21
2018-03-25T05:11:32.309Z,2.35
2018-03-25T05:13:59.870Z,2.41
2018-03-25T05:16:27.482Z,2.40
2018-03-25T05:18:55.038Z,2.37
2018-03-25T05:21:22.674Z,2.37
2018-03-25T05:23:50.243Z,2.43
2018-03-25T05:26:17.868Z,2.48
2018-03-25T05:28:45.442Z,2.39
2018-03-25T05:31:13.013Z,2.34
2018-03-25T05:33:40.709Z,2.37
2018-03-25T05:36:08.330Z,2.34
2018-03-25T05:38:35.893Z,2.23
2018-03-25T05:41:03.465Z,2.36
2018-03-25T05:43:31.027Z,2.48
2018-03-25T05:45:58.710Z,2.45
2018-03-25T05:48:26.271Z,2.31
2018-03-25T05:50:53.833Z,2.31
2018-03-25T05:53:21.471Z,2.51
2018-03-25T05:55:49.030Z,2.57
2018-03-25T05:58:16.707Z,2.69
2018-03-25T06:00:44.266Z,2.70
2018-03-25T06:03:11.826Z,2.79
2018-03-25T06:05:39.394Z,3.04
2018-03-25T06:08:06.965Z,3.13
2018-03-25T06:10:34.534Z,3.07
2018-03-25T06:13:02.155Z,3.21
2018-03-25T06:15:29.844Z,3.53
2018-03-25T06:17:57.407Z,3.81
2018-03-25T06:20:24.967Z,4.11
2018-03-25T06:22:52.533Z,4.44
2018-03-25T06:25:20.102Z,4.44
2018-03-25T06:27:47.735Z,4.56
2018-03-25T06:30:15.303Z,4.67
2018-03-25T06:32:42.875Z,4.90
2018-03-25T06:35:10.435Z,5.09
2018-03-25T06:37:38.047Z,5.26
2018-03-25T06:40:05.605Z,5.20
2018-03-25T06:42:33.197Z,5.28
2018-03-25T06:45:00.778Z,5.57
2018-03-25T06:47:28.404Z,5.68
2018-03-25T06:49:55.970Z,6.10
2018-03-25T06:52:23.552Z,6.57
2018-03-25T06:54:51.182Z,7.08
2018-03-25T06:57:18.806Z,7.52
2018-03-25T06:59:46.439Z,7.62
2018-03-25T07:02:14.072Z,7.73
2018-03-25T07:04:41.705Z,8.30
2018-03-25T07:07:09.267Z,8.19
2018-03-25T07:09:36.845Z,7.83
2018-03-25T07:12:04.417Z,7.84
2018-03-25T07:14:32.148Z,7.47
2018-03-25T07:16:59.714Z,7.73
2018-03-25T07:19:27.286Z,7.74
2018-03-25T07:21:54.864Z,7.26
2018-03-25T07:24:22.426Z,6.99
2018-03-25T07:26:50.119Z,6.80
2018-03-25T07:29:17.679Z,6.43
2018-03-25T07:31:45.242Z,6.41
2018-03-25T07:34:12.830Z,6.47
2018-03-25T07:36:40.459Z,6.70
2018-03-25T07:39:08.114Z,6.71
2018-03-25T07:41:35.736Z,7.11
2018-03-25T07:44:03.393Z,7.48
2018-03-25T07:46:31.020Z,7.51
2018-03-25T07:48:58.655Z,7.80
2018-03-25T07:51:26.261Z,7.41
2018-03-25T07:53:53.829Z,8.29
2018-03-25T07:56:21.403Z,8.23
2018-03-25T07:58:48.969Z,8.12
2018-03-25T08:01:16.548Z,8.16
2018-03-25T08:03:44.114Z,8.28
2018-03-25T08:06:11.750Z,7.85
2018-03-25T08:08:39.338Z,7.58
2018-03-25T08:11:06.898Z,7.37
2018-03-25T08:13:34.476Z,7.56
2018-03-25T08:16:02.065Z,7.63
2018-03-25T08:18:29.654Z,7.43
2018-03-25T08:20:57.236Z,7.87
2018-03-25T08:23:24.858Z,8.30
2018-03-25T08:25:52.426Z,8.35
2018-03-25T08:28:20.066Z,8.68
2018-03-25T08:30:47.639Z,9.03
2018-03-25T08:33:15.211Z,9.01
2018-03-25T08:35:42.786Z,8.53
2018-03-25T08:38:10.354Z,8.55
2018-03-25T08:40:37.973Z,8.39
2018-03-25T08:43:05.599Z,8.52
2018-03-25T08:45:33.166Z,8.36
2018-03-25T08:48:00.814Z,8.75
2018-03-25T08:50:28.439Z,8.43
2018-03-25T08:52:56.074Z,9.14
2018-03-25T08:55:23.648Z,8.84
2018-03-25T08:57:51.310Z,8.92
2018-03-25T09:00:18.975Z,8.96
2018-03-25T09:02:46.610Z,9.33
2018-03-25T09:05:14.250Z,9.52
2018-03-25T09:07:41.875Z,8.63
2018-03-25T09:10:09.511Z,8.73
2018-03-25T09:12:37.090Z,8.61
2018-03-25T09:15:04.729Z,9.08
2018-03-25T09:17:32.303Z,9.20
2018-03-25T09:19:59.879Z,8.73
2018-03-25T09:22:27.454Z,8.67
2018-03-25T09:24:55.083Z,9.21
2018-03-25T09:27:22.750Z,9.57
2018-03-25T09:29:50.377Z,9.58
2018-03-25T09:32:17.946Z,9.50
2018-03-25T09:34:45.586Z,10.04
2018-03-25T09:37:13.245Z,10.27
2018-03-25T09:39:40.888Z,9.64
2018-03-25T09:42:08.456Z,9.22
2018-03-25T09:44:36.112Z,9.28
2018-03-25T09:47:03.693Z,9.33
2018-03-25T09:49:31.274Z,10.07
2018-03-25T09:51:58.932Z,10.12
2018-03-25T09:54:26.517Z,10.45
2018-03-25T09:56:54.117Z,10.10
2018-03-25T09:59:21.676Z,9.92
2018-03-25T10:01:54.879Z,10.03
2018-03-25T10:04:22.463Z,10.53
2018-03-25T10:06:50.041Z,10.93
2018-03-25T10:09:17.690Z,11.28
2018-03-25T10:11:45.262Z,11.38
2018-03-25T10:14:12.858Z,11.45
2018-03-25T10:26:24.598Z,11.32
2018-03-25T10:32:26.043Z,12.06
2018-03-25T10:34:53.723Z,12.00
2018-03-25T10:37:21.336Z,12.36
2018-03-25T10:39:48.909Z,12.10
2018-03-25T10:42:16.504Z,12.14
2018-03-25T10:44:44.138Z,12.60
2018-03-25T10:47:11.731Z,12.03
2018-03-25T10:53:15.247Z,12.63
2018-03-25T10:56:42.920Z,13.12
2018-03-25T10:59:10.582Z,14.11
2018-03-25T11:01:38.154Z,14.67
2018-03-25T11:04:05.857Z,15.08
2018-03-25T11:06:33.605Z,15.13
2018-03-25T11:09:01.239Z,14.69
2018-03-25T11:11:28.824Z,14.81
2018-03-25T11:13:56.395Z,14.95
2018-03-25T11:16:23.970Z,14.94
2018-03-25T11:18:51.556Z,15.12
2018-03-25T11:21:19.259Z,14.77
2018-03-25T11:23:46.872Z,14.58
2018-03-25T11:26:15.263Z,14.65
2018-03-25T11:28:42.861Z,14.30
2018-03-25T11:31:10.495Z,13.82
2018-03-25T11:33:38.068Z,13.42
2018-03-25T11:36:05.629Z,13.54
2018-03-25T11:38:33.875Z,12.68
2018-03-25T11:41:01.501Z,12.62
2018-03-25T11:43:29.065Z,12.71
2018-03-25T11:45:56.656Z,12.92
2018-03-25T11:48:24.227Z,13.08
2018-03-25T11:50:51.857Z,13.51
2018-03-25T11:53:19.437Z,14.44
2018-03-25T11:55:47.058Z,14.59
2018-03-25T11:58:14.678Z,15.37
2018-03-25T12:00:42.240Z,16.24
2018-03-25T12:03:09.806Z,15.75
2018-03-25T12:05:37.366Z,14.95
2018-03-25T12:08:05.008Z,14.87
2018-03-25T12:10:32.578Z,15.28
2018-03-25T12:13:00.183Z,14.39
2018-03-25T12:15:27.759Z,14.22
2018-03-25T12:17:55.388Z,14.07
2018-03-25T12:20:22.953Z,14.14
2018-03-25T12:22:50.586Z,14.02
2018-03-25T12:25:18.165Z,13.95
2018-03-25T12:27:45.741Z,13.56
2018-03-25T12:30:13.378Z,13.10
2018-03-25T12:32:41.714Z,13.40
2018-03-25T12:35:09.287Z,13.53
2018-03-25T12:37:36.919Z,13.80
2018-03-25T12:40:04.608Z,14.14
2018-03-25T12:42:33.818Z,14.02
2018-03-25T12:45:01.407Z,13.84
2018-03-25T12:47:28.981Z,13.56
2018-03-25T12:49:56.657Z,13.61
2018-03-25T12:52:24.238Z,13.68
2018-03-25T12:54:52.457Z,13.49
2018-03-25T12:57:20.031Z,13.63
2018-03-25T12:59:47.599Z,13.81
2018-03-25T13:02:15.283Z,13.64
2018-03-25T13:04:43.377Z,13.02
2018-03-25T13:07:10.940Z,12.79
2018-03-25T13:09:38.519Z,13.54
2018-03-25T13:12:06.144Z,13.85
2018-03-25T13:14:33.738Z,13.82
2018-03-25T13:17:01.321Z,13.56
2018-03-25T13:19:28.919Z,13.30
2018-03-25T13:21:57.468Z,13.36
2018-03-25T13:24:25.112Z,13.12
2018-03-25T13:26:52.678Z,13.47
2018-03-25T13:29:20.249Z,12.96
2018-03-25T13:31:47.828Z,13.23
2018-03-25T13:34:15.399Z,13.55
2018-03-25T13:36:43.041Z,13.02
2018-03-25T13:39:10.625Z,12.87
2018-03-25T13:41:38.250Z,13.16
2018-03-25T13:44:05.884Z,12.71
2018-03-25T13:46:33.583Z,12.45
2018-03-25T13:49:01.160Z,12.15
2018-03-25T13:51:28.747Z,11.28
2018-03-25T13:53:56.413Z,11.01
2018-03-25T13:56:23.978Z,10.83
2018-03-25T13:58:51.633Z,10.62
2018-03-25T14:01:19.203Z,10.23
2018-03-25T14:03:46.781Z,10.34
2018-03-25T14:06:14.399Z,10.50
2018-03-25T14:08:42.039Z,10.17
2018-03-25T14:11:10.763Z,9.89
2018-03-25T14:13:38.330Z,9.78
2018-03-25T14:16:05.906Z,9.68
2018-03-25T14:18:33.542Z,9.63
2018-03-25T14:21:01.109Z,9.62
2018-03-25T14:23:28.671Z,9.64
2018-03-25T14:25:56.243Z,9.77
2018-03-25T14:28:23.872Z,9.68
2018-03-25T14:30:51.560Z,9.71
2018-03-25T14:33:19.191Z,9.54
2018-03-25T14:35:46.767Z,9.40
2018-03-25T14:38:14.583Z,9.24
2018-03-25T14:40:42.155Z,9.37
2018-03-25T14:43:09.787Z,9.29
2018-03-25T14:45:37.368Z,9.04
2018-03-25T14:48:04.942Z,8.85
2018-03-25T14:50:32.567Z,8.91
2018-03-25T14:53:00.183Z,9.02
2018-03-25T14:55:27.807Z,9.08
2018-03-25T14:57:55.392Z,8.89
2018-03-25T15:00:23.039Z,8.99
2018-03-25T15:02:51.387Z,8.88
2018-03-25T15:05:18.967Z,8.98
2018-03-25T15:07:46.535Z,8.97
2018-03-25T15:10:14.106Z,8.98
2018-03-25T15:12:41.694Z,9.15
2018-03-25T15:15:09.274Z,9.20
2018-03-25T15:17:36.856Z,9.23
2018-03-25T15:20:04.534Z,9.17
2018-03-25T15:22:32.113Z,9.09
2018-03-25T15:24:59.760Z,9.10
2018-03-25T15:27:27.398Z,8.93
2018-03-25T15:29:54.966Z,8.93
2018-03-25T15:32:22.632Z,8.93
2018-03-25T15:34:50.260Z,8.80
2018-03-25T15:37:17.966Z,8.72
2018-03-25T15:39:45.604Z,8.50
2018-03-25T15:42:13.216Z,8.40
2018-03-25T15:44:41.365Z,8.25
2018-03-25T15:47:08.934Z,8.16
2018-03-25T15:49:36.551Z,8.09
2018-03-25T15:52:04.186Z,7.91
2018-03-25T15:54:31.799Z,7.76
2018-03-25T15:56:59.452Z,7.68
2018-03-25T15:59:27.021Z,7.54
2018-03-25T16:01:54.654Z,7.41
2018-03-25T16:04:22.233Z,7.25
2018-03-25T16:06:50.346Z,7.14
2018-03-25T16:09:17.932Z,7.01
2018-03-25T16:11:45.507Z,6.88
2018-03-25T16:14:13.080Z,6.80
2018-03-25T16:16:40.770Z,6.72
2018-03-25T16:19:08.353Z,6.62
2018-03-25T16:21:35.924Z,6.51
2018-03-25T16:24:03.503Z,6.32
2018-03-25T16:26:31.140Z,6.23
2018-03-25T16:28:58.772Z,6.20
2018-03-25T16:31:26.343Z,6.10
2018-03-25T16:33:53.941Z,6.00
2018-03-25T16:36:21.574Z,5.91
2018-03-25T16:38:49.242Z,5.89
2018-03-25T16:41:16.878Z,5.80
2018-03-25T16:43:44.462Z,5.74
2018-03-25T16:46:12.109Z,5.66
2018-03-25T16:48:39.703Z,5.59
2018-03-25T16:51:07.446Z,5.49
2018-03-25T16:53:35.252Z,5.39
2018-03-25T16:56:02.827Z,5.35
2018-03-25T16:58:30.492Z,5.27
2018-03-25T17:00:58.125Z,5.18
2018-03-25T17:03:25.709Z,5.05
2018-03-25T17:05:53.339Z,4.98
2018-03-25T17:08:20.931Z,4.90
2018-03-25T17:10:48.504Z,4.82
2018-03-25T17:13:16.145Z,4.77
2018-03-25T17:15:43.717Z,4.66
2018-03-25T17:18:11.335Z,4.56
2018-03-25T17:20:38.968Z,4.54
2018-03-25T17:23:06.615Z,4.48
2018-03-25T17:25:34.246Z,4.45
2018-03-25T17:28:01.816Z,4.44
2018-03-25T17:30:29.400Z,4.40
2018-03-25T17:32:56.971Z,4.35
2018-03-25T17:35:24.655Z,4.34
2018-03-25T17:37:52.241Z,4.28
2018-03-25T17:40:19.816Z,4.26
2018-03-25T17:42:47.452Z,4.35
2018-03-25T17:45:15.018Z,4.46
2018-03-25T17:47:42.601Z,4.59
2018-03-25T17:50:10.239Z,4.73
2018-03-25T17:52:37.852Z,4.83
2018-03-25T17:55:05.488Z,4.87
2018-03-25T17:57:33.068Z,4.85
2018-03-25T18:00:00.646Z,4.91
2018-03-25T18:02:28.220Z,5.01
2018-03-25T18:04:55.808Z,5.02
2018-03-25T18:07:23.369Z,5.11
2018-03-25T18:09:51.008Z,5.17
2018-03-25T18:12:18.583Z,5.20
2018-03-25T18:14:46.271Z,5.24
2018-03-25T18:17:33.465Z,5.24
2018-03-25T18:19:41.542Z,5.21
2018-03-25T18:22:09.127Z,5.21
2018-03-25T18:24:37.402Z,5.19
2018-03-25T18:27:05.035Z,5.11
2018-03-25T18:29:32.615Z,5.07
2018-03-25T18:32:00.235Z,5.05
2018-03-25T18:34:27.863Z,5.12
2018-03-25T18:36:55.435Z,5.14
2018-03-25T18:39:23.083Z,5.14
2018-03-25T18:41:50.712Z,5.11
2018-03-25T18:44:18.291Z,5.03
2018-03-25T18:46:45.880Z,4.97
2018-03-25T18:49:13.487Z,4.92
2018-03-25T18:51:41.090Z,4.86
2018-03-25T18:54:09.320Z,4.81
2018-03-25T18:56:36.951Z,4.74
2018-03-25T18:59:04.530Z,4.68
2018-03-25T19:01:32.131Z,4.66
2018-03-25T19:03:59.700Z,4.71
2018-03-25T19:06:27.304Z,4.73
2018-03-25T19:08:54.878Z,4.75
2018-03-25T19:11:22.520Z,4.76
2018-03-25T19:13:50.106Z,4.81
2018-03-25T19:16:17.812Z,4.85
2018-03-25T19:18:45.439Z,4.88
2018-03-25T19:21:13.075Z,4.94
2018-03-25T19:23:40.654Z,4.97
2018-03-25T19:26:08.284Z,5.00
2018-03-25T19:28:35.872Z,5.04
2018-03-25T19:31:03.523Z,5.08
2018-03-25T19:33:31.171Z,5.13
2018-03-25T19:35:58.824Z,5.17
2018-03-25T19:38:26.446Z,5.13
2018-03-25T19:40:54.017Z,5.21
2018-03-25T19:43:21.660Z,5.26
2018-03-25T19:45:49.253Z,5.30
2018-03-25T19:48:16.816Z,5.26
2018-03-25T19:50:44.416Z,5.24
2018-03-25T19:53:12.057Z,5.23
2018-03-25T19:55:39.714Z,5.21
2018-03-25T19:58:07.281Z,5.06
2018-03-25T20:00:34.902Z,4.92
2018-03-25T20:03:02.506Z,4.88
2018-03-25T20:05:30.135Z,4.82
2018-03-25T20:07:57.842Z,4.83
2018-03-25T20:10:25.441Z,4.77
2018-03-25T20:12:53.031Z,4.75
2018-03-25T20:15:20.653Z,4.78
2018-03-25T20:17:48.237Z,4.83
2018-03-25T20:20:15.872Z,4.89
2018-03-25T20:22:43.562Z,4.95
2018-03-25T20:25:11.129Z,5.03
2018-03-25T20:27:38.694Z,5.10
2018-03-25T20:30:06.266Z,5.22
2018-03-25T20:32:33.856Z,5.28
2018-03-25T20:35:01.505Z,5.29
2018-03-25T20:37:29.088Z,5.35
2018-03-25T20:39:56.679Z,5.38
2018-03-25T20:42:24.351Z,5.42
2018-03-25T20:44:52.031Z,5.48
2018-03-25T20:47:19.595Z,5.48
2018-03-25T20:49:47.167Z,5.52
2018-03-25T20:52:14.738Z,5.55
2018-03-25T20:54:42.367Z,5.62
2018-03-25T20:57:09.944Z,5.60
2018-03-25T20:59:37.584Z,5.65
2018-03-25T21:02:05.238Z,5.72
2018-03-25T21:04:32.864Z,5.77
2018-03-25T21:07:00.494Z,5.82
2018-03-25T21:09:28.065Z,5.85
2018-03-25T21:11:55.722Z,5.91
2018-03-25T21:14:23.359Z,5.92
2018-03-25T21:16:50.979Z,5.92
2018-03-25T21:19:18.541Z,5.84
2018-03-25T21:21:46.103Z,5.85
2018-03-25T21:24:13.792Z,5.84
2018-03-25T21:26:41.415Z,5.81
2018-03-25T21:29:09.090Z,5.74
2018-03-25T21:31:36.774Z,5.66
2018-03-25T21:34:04.374Z,5.66
2018-03-25T21:36:31.950Z,5.66
2018-03-25T21:38:59.566Z,5.66
2018-03-25T21:41:27.212Z,5.58
2018-03-25T21:43:54.774Z,5.61
2018-03-25T21:46:22.342Z,5.55
2018-03-25T21:48:49.918Z,5.56
2018-03-25T21:51:17.486Z,5.58
2018-03-25T21:53:45.050Z,5.64
2018-03-25T21:56:12.618Z,5.66
2018-03-25T21:58:40.201Z,5.68
2018-03-25T22:01:07.803Z,5.68
2018-03-25T22:03:35.408Z,5.71
2018-03-25T22:06:03.035Z,5.72
2018-03-25T22:08:30.599Z,5.73
2018-03-25T22:10:58.240Z,5.76
2018-03-25T22:13:25.868Z,5.79
2018-03-25T22:15:53.438Z,5.81
2018-03-25T22:21:20.842Z,5.78
2018-03-25T22:23:48.470Z,5.71
2018-03-25T22:26:16.056Z,5.75
2018-03-25T22:28:43.626Z,5.78
2018-03-25T22:31:11.256Z,5.76
2018-03-25T22:33:38.898Z,5.76
2018-03-25T22:36:06.471Z,5.75
2018-03-25T22:38:34.128Z,5.80
2018-03-25T22:41:01.699Z,5.78
2018-03-25T22:43:29.278Z,5.82
2018-03-25T22:45:56.903Z,5.84
2018-03-25T22:48:24.466Z,5.86
2018-03-25T22:50:52.112Z,5.91
2018-03-25T22:53:19.731Z,5.94
2018-03-25T22:55:47.299Z,5.98
2018-03-25T22:58:14.938Z,5.84
2018-03-25T23:00:42.566Z,5.94
2018-03-25T23:03:10.137Z,5.90
2018-03-25T23:05:37.702Z,5.99
2018-03-25T23:08:05.335Z,6.02
2018-03-25T23:10:32.973Z,6.03
2018-03-25T23:13:00.643Z,6.13
2018-03-25T23:15:28.210Z,6.20
2018-03-25T23:17:55.771Z,6.22
2018-03-25T23:20:23.347Z,6.24
2018-03-25T23:22:50.924Z,6.25
2018-03-25T23:25:18.558Z,6.25
2018-03-25T23:27:46.183Z,6.24
2018-03-25T23:30:13.810Z,6.22
2018-03-25T23:32:41.386Z,6.20
2018-03-25T23:35:09.762Z,6.16
2018-03-25T23:37:37.334Z,6.19
2018-03-25T23:40:04.897Z,6.18
2018-03-25T23:42:32.467Z,6.14
2018-03-25T23:45:00.088Z,6.10
2018-03-25T23:47:27.646Z,6.06
2018-03-25T23:49:55.273Z,6.03
2018-03-25T23:52:22.902Z,6.02
2018-03-25T23:54:50.467Z,6.01
2018-03-25T23:57:18.033Z,5.99
2018-03-25T23:59:45.603Z,5.93
